Pagrindinis puslapis
METAR-TAF:

METAR-TAF

Oro uostai :

Paso de los Libresas, Argentina

platuma: 29-41S, ilguma: 057-09W, Aukštis: 69 m

Dabartinis oras

Ataskaita buvo paskelbta 50 minutes, ne 04:00 UTC
Vėjas 12 kt iš Pietų
Temperatūra 14°C
Drėgmė 63%
Slėgis 1022 hPa
Matomumas 10 km arba daugiau
nėra debesų žemiau 1500 m ir nėra kamuolinių lietaus debesų

METAR: SARL 070400Z 18012KT CAVOK 14/07 Q1022

Laikas: 01:50 (04:50 UTC)


TAF: trūkstamas

Orai ataskaitas ir orų prognozės (METAR, TAF).

turimą stotys yra geltonos ir raudonos taškus žemėlapyje.

Perkelti pele per norėdami pamatyti stoties vardą.

Tada spustelėkite, norėdami matyti oro stebėjimo ir prognozės.

Norėdami pakeisti žemėlapį: spustelėkite ant žalios mygtukų su juodo kryžiaus žemyn,; žalią mygtuką su brūkšneliu, jei norite nutolinti; arba žalių rodyklių gretimoms žemėlapius.


METAR-TAF: